Time;durP1;ratioP1;P1;durP2;ratioP2;P2;SDS_P1;SDS_P2;PMS_P1;PMS_P2;Temp;Humidity;BMP_temperature;BMP_pressure;BME280_temperature;BME280_humidity;BME280_pressure;Samples;Min_cycle;Max_cycle;Signal;HPM_P1;HPM_P2
2023/01/14 00:01:13;;;;;;;;;;;;;;;;;;5038996;28;19924;-25
2023/01/14 00:03:39;;;;;;;;;;;;;;;;;;5038597;28;19913;-25
2023/01/14 00:06:06;;;;;;;;;;;;;;;;;;5038381;28;20233;-25
2023/01/14 00:08:32;;;;;;;;;;;;;;;;;;5038518;28;20422;-25
2023/01/14 00:10:58;;;;;;;;;;;;;;;;;;5038460;28;19975;-25
2023/01/14 00:13:24;;;;;;;;;;;;;;;;;;5038360;28;19917;-25
2023/01/14 00:15:50;;;;;;;;;;;;;;;;;;5038288;28;20256;-25
2023/01/14 00:18:16;;;;;;;;;;;;;;;;;;5038578;28;19913;-25
2023/01/14 00:20:42;;;;;;;;;;;;;;;;;;5020760;28;19920;-25
2023/01/14 00:23:08;;;;;;;;;;;;;;;;;;5020650;28;19971;-25
2023/01/14 00:25:34;;;;;;;;;;;;;;;;;;5020699;28;19912;-25
2023/01/14 00:28:00;;;;;;;;;;;;;;;;;;5038112;28;19913;-25
2023/01/14 00:30:26;;;;;;;;;;;;;;;;;;5038085;28;19935;-25
2023/01/14 00:32:52;;;;;;;;;;;;;;;;;;5037960;28;19996;-25
2023/01/14 00:35:18;;;;;;;;;;;;;;;;;;5038171;28;19986;-24
2023/01/14 00:37:44;;;;;;;;;;;;;;;;;;5020495;28;20047;-24
2023/01/14 00:40:10;;;;;;;;;;;;;;;;;;5037945;28;20004;-25
2023/01/14 00:42:36;;;;;;;;;;;;;;;;;;5037779;28;19942;-25
2023/01/14 00:45:02;;;;;;;;;;;;;;;;;;5037751;28;19981;-25
2023/01/14 00:47:28;;;;;;;;;;;;;;;;;;5038016;28;20259;-24
2023/01/14 00:49:54;;;;;;;;;;;;;;;;;;5020263;28;20344;-25
2023/01/14 00:52:20;;;;;;;;;;;;;;;;;;5037672;28;19999;-24
2023/01/14 00:54:46;;;;;;;;;;;;;;;;;;5037503;28;20012;-24
2023/01/14 00:57:14;;;;;;;;;;;;;;;;;;5037888;28;19939;-24
2023/01/14 00:59:40;;;;;;;;;;;;;;;;;;5037719;28;19948;-24
2023/01/14 01:02:07;;;;;;;;;;;;;;;;;;5037642;28;19913;-26
2023/01/14 01:04:33;;;;;;;;;;;;;;;;;;5037310;28;20410;-25
2023/01/14 01:06:59;;;;;;;;;;;;;;;;;;5037197;28;19917;-25
2023/01/14 01:09:25;;;;;;;;;;;;;;;;;;5037276;28;19920;-24
2023/01/14 01:11:51;;;;;;;;;;;;;;;;;;5037204;28;19909;-24
2023/01/14 01:14:18;;;;;;;;;;;;;;;;;;5037479;28;19925;-24
2023/01/14 01:16:44;;;;;;;;;;;;;;;;;;5037716;28;19913;-24
2023/01/14 01:19:10;;;;;;;;;;;;;;;;;;5037259;28;19987;-24
2023/01/14 01:21:36;;;;;;;;;;;;;;;;;;5037220;28;20348;-24
2023/01/14 01:24:01;;;;;;;;;;;;;;;;;;5037013;28;19971;-25
2023/01/14 01:26:27;;;;;;;;;;;;;;;;;;5036965;28;20301;-24
2023/01/14 01:28:53;;;;;;;;;;;;;;;;;;5037216;28;19917;-25
2023/01/14 01:31:20;;;;;;;;;;;;;;;;;;5037178;28;19939;-24
2023/01/14 01:33:46;;;;;;;;;;;;;;;;;;5036666;28;19913;-24
2023/01/14 01:36:12;;;;;;;;;;;;;;;;;;5036873;28;19909;-25
2023/01/14 01:38:38;;;;;;;;;;;;;;;;;;5019343;28;19924;-24
2023/01/14 01:41:04;;;;;;;;;;;;;;;;;;5036748;28;19909;-25
2023/01/14 01:43:30;;;;;;;;;;;;;;;;;;5036711;28;19999;-24
2023/01/14 01:45:56;;;;;;;;;;;;;;;;;;5036962;28;20350;-24
2023/01/14 01:48:22;;;;;;;;;;;;;;;;;;5036613;28;20011;-24
2023/01/14 01:50:48;;;;;;;;;;;;;;;;;;5036572;28;19909;-25
2023/01/14 01:53:14;;;;;;;;;;;;;;;;;;5019065;28;19913;-25
2023/01/14 01:55:40;;;;;;;;;;;;;;;;;;5036379;28;19913;-24
2023/01/14 01:58:06;;;;;;;;;;;;;;;;;;5036737;28;19913;-25
2023/01/14 02:00:32;;;;;;;;;;;;;;;;;;5036426;28;20431;-24
2023/01/14 02:02:58;;;;;;;;;;;;;;;;;;5036610;28;19925;-25
2023/01/14 02:05:25;;;;;;;;;;;;;;;;;;5036178;28;19913;-24
2023/01/14 02:07:51;;;;;;;;;;;;;;;;;;5036167;28;19939;-24
2023/01/14 02:10:17;;;;;;;;;;;;;;;;;;5036512;28;19941;-25
2023/01/14 02:12:42;;;;;;;;;;;;;;;;;;5036205;28;19926;-24
2023/01/14 02:15:09;;;;;;;;;;;;;;;;;;5036086;28;19917;-24
2023/01/14 02:17:34;;;;;;;;;;;;;;;;;;5035503;28;20320;-24
2023/01/14 02:20:00;;;;;;;;;;;;;;;;;;5036282;28;19916;-24
2023/01/14 02:22:26;;;;;;;;;;;;;;;;;;5035919;28;20000;-24
2023/01/14 02:24:52;;;;;;;;;;;;;;;;;;5035898;28;20070;-24
2023/01/14 02:27:18;;;;;;;;;;;;;;;;;;5035891;28;19913;-25
2023/01/14 02:29:44;;;;;;;;;;;;;;;;;;5035840;28;19913;-24
2023/01/14 02:32:10;;;;;;;;;;;;;;;;;;5035713;28;19966;-24
2023/01/14 02:34:36;;;;;;;;;;;;;;;;;;5035687;28;19917;-24
2023/01/14 02:37:02;;;;;;;;;;;;;;;;;;5036434;28;19932;-24
2023/01/14 02:39:28;;;;;;;;;;;;;;;;;;5035659;28;20073;-26
2023/01/14 02:44:39;;;;;;;;;;;;;;;;;;5035903;28;19963;-24
2023/01/14 02:47:05;;;;;;;;;;;;;;;;;;5018095;28;20279;-25
2023/01/14 02:49:31;;;;;;;;;;;;;;;;;;5035475;28;19916;-24
2023/01/14 02:51:57;;;;;;;;;;;;;;;;;;5035315;28;19909;-24
2023/01/14 02:54:23;;;;;;;;;;;;;;;;;;5035591;28;19972;-24
2023/01/14 02:56:49;;;;;;;;;;;;;;;;;;5035560;28;19909;-24
2023/01/14 02:59:15;;;;;;;;;;;;;;;;;;5035596;28;19919;-24
2023/01/14 03:01:41;;;;;;;;;;;;;;;;;;5035175;28;20008;-24
2023/01/14 03:04:07;;;;;;;;;;;;;;;;;;5035352;28;19913;-24
2023/01/14 03:06:33;;;;;;;;;;;;;;;;;;5034990;28;20279;-24
2023/01/14 03:08:59;;;;;;;;;;;;;;;;;;5035174;28;19979;-24
2023/01/14 03:11:25;;;;;;;;;;;;;;;;;;5035129;28;19917;-25
2023/01/14 03:13:51;;;;;;;;;;;;;;;;;;5034978;28;19913;-24
2023/01/14 03:16:17;;;;;;;;;;;;;;;;;;5035326;28;19913;-24
2023/01/14 03:18:43;;;;;;;;;;;;;;;;;;5035003;28;19975;-25
2023/01/14 03:21:09;;;;;;;;;;;;;;;;;;5034993;28;19920;-24
2023/01/14 03:23:35;;;;;;;;;;;;;;;;;;5035193;28;19910;-25
2023/01/14 03:26:02;;;;;;;;;;;;;;;;;;5034920;28;19924;-24
2023/01/14 03:28:27;;;;;;;;;;;;;;;;;;5033920;28;19913;-24
2023/01/14 03:30:53;;;;;;;;;;;;;;;;;;5034744;28;19913;-24
2023/01/14 03:33:19;;;;;;;;;;;;;;;;;;5034747;28;19924;-25
2023/01/14 03:35:45;;;;;;;;;;;;;;;;;;5034931;28;20354;-25
2023/01/14 03:38:11;;;;;;;;;;;;;;;;;;5034843;28;19931;-25
2023/01/14 03:40:37;;;;;;;;;;;;;;;;;;5034943;28;20263;-24
2023/01/14 03:43:03;;;;;;;;;;;;;;;;;;5034960;28;19913;-24
2023/01/14 03:45:29;;;;;;;;;;;;;;;;;;5034555;28;19923;-24
2023/01/14 03:47:55;;;;;;;;;;;;;;;;;;5034703;28;19999;-24
2023/01/14 03:50:23;;;;;;;;;;;;;;;;;;5034924;28;19913;-24
2023/01/14 03:52:49;;;;;;;;;;;;;;;;;;5034668;28;19920;-24
2023/01/14 03:55:15;;;;;;;;;;;;;;;;;;5034553;28;19916;-24
2023/01/14 03:57:41;;;;;;;;;;;;;;;;;;5034597;28;19971;-24
2023/01/14 04:00:07;;;;;;;;;;;;;;;;;;5034544;28;20055;-25
2023/01/14 04:02:33;;;;;;;;;;;;;;;;;;5034571;28;20046;-24
2023/01/14 04:04:59;;;;;;;;;;;;;;;;;;5034282;28;19966;-24
2023/01/14 04:07:25;;;;;;;;;;;;;;;;;;5034510;28;19940;-24
2023/01/14 04:09:51;;;;;;;;;;;;;;;;;;5034422;28;19913;-24
2023/01/14 04:12:17;;;;;;;;;;;;;;;;;;5034378;28;19909;-25
2023/01/14 04:17:41;;;;;;;;;;;;;;;;;;4990764;28;19913;-24
2023/01/14 04:20:07;;;;;;;;;;;;;;;;;;5034335;28;20308;-24
2023/01/14 04:22:33;;;;;;;;;;;;;;;;;;5034537;28;19923;-25
2023/01/14 04:24:59;;;;;;;;;;;;;;;;;;5034290;28;19973;-25
2023/01/14 04:27:25;;;;;;;;;;;;;;;;;;5034560;28;19971;-25
2023/01/14 04:29:51;;;;;;;;;;;;;;;;;;5034228;28;19913;-24
2023/01/14 04:32:17;;;;;;;;;;;;;;;;;;5034173;28;20004;-24
2023/01/14 04:34:43;;;;;;;;;;;;;;;;;;5034111;28;19944;-24
2023/01/14 04:37:09;;;;;;;;;;;;;;;;;;5034581;28;20018;-24
2023/01/14 04:39:35;;;;;;;;;;;;;;;;;;5034445;28;19940;-24
2023/01/14 04:44:47;;;;;;;;;;;;;;;;;;5038048;28;19932;-24
2023/01/14 04:47:14;;;;;;;;;;;;;;;;;;5037714;28;20000;-24
2023/01/14 04:49:40;;;;;;;;;;;;;;;;;;5037618;28;19982;-24
2023/01/14 04:52:06;;;;;;;;;;;;;;;;;;5037488;28;19917;-25
2023/01/14 04:54:32;;;;;;;;;;;;;;;;;;5037468;28;19924;-24
2023/01/14 04:56:58;;;;;;;;;;;;;;;;;;5019892;28;19909;-24
2023/01/14 04:59:24;;;;;;;;;;;;;;;;;;5037627;28;19917;-25
2023/01/14 05:01:50;;;;;;;;;;;;;;;;;;5037252;28;19913;-25
2023/01/14 05:04:16;;;;;;;;;;;;;;;;;;5037182;28;19939;-25
2023/01/14 05:06:42;;;;;;;;;;;;;;;;;;5037061;28;20042;-25
2023/01/14 05:09:08;;;;;;;;;;;;;;;;;;5037375;28;19948;-26
2023/01/14 05:11:34;;;;;;;;;;;;;;;;;;5037595;28;19948;-25
2023/01/14 05:14:00;;;;;;;;;;;;;;;;;;5037046;28;19913;-25
2023/01/14 05:16:27;;;;;;;;;;;;;;;;;;5037253;28;20241;-25
2023/01/14 05:18:52;;;;;;;;;;;;;;;;;;5037165;28;19920;-25
2023/01/14 05:21:18;;;;;;;;;;;;;;;;;;5037171;28;20260;-25
2023/01/14 05:23:44;;;;;;;;;;;;;;;;;;5037107;28;20229;-25
2023/01/14 05:26:10;;;;;;;;;;;;;;;;;;5037016;28;19919;-25
2023/01/14 05:28:36;;;;;;;;;;;;;;;;;;5036970;28;19999;-23
2023/01/14 05:31:02;;;;;;;;;;;;;;;;;;5037067;28;19924;-23
2023/01/14 05:33:28;;;;;;;;;;;;;;;;;;5019189;28;19925;-24
2023/01/14 05:35:55;;;;;;;;;;;;;;;;;;5036684;28;19913;-24
2023/01/14 05:38:21;;;;;;;;;;;;;;;;;;5036618;28;19913;-24
2023/01/14 05:40:47;;;;;;;;;;;;;;;;;;5037012;28;19999;-24
2023/01/14 05:45:59;;;;;;;;;;;;;;;;;;5036955;28;19919;-24
2023/01/14 05:48:25;;;;;;;;;;;;;;;;;;5036755;28;20259;-24
2023/01/14 05:50:51;;;;;;;;;;;;;;;;;;5036700;28;19909;-23
2023/01/14 05:53:17;;;;;;;;;;;;;;;;;;5036104;28;20011;-24
2023/01/14 05:55:44;;;;;;;;;;;;;;;;;;5036471;28;20012;-24
2023/01/14 05:58:10;;;;;;;;;;;;;;;;;;5036720;28;19925;-23
2023/01/14 06:08:37;;;;;;;;;;;;;;;;;;5036479;28;20264;-24
2023/01/14 06:11:03;;;;;;;;;;;;;;;;;;5036144;28;19913;-24
2023/01/14 06:13:29;;;;;;;;;;;;;;;;;;5036037;28;20018;-24
2023/01/14 06:15:55;;;;;;;;;;;;;;;;;;5036113;28;20124;-24
2023/01/14 06:18:22;;;;;;;;;;;;;;;;;;5036124;28;19913;-24
2023/01/14 06:20:48;;;;;;;;;;;;;;;;;;5035886;28;19909;-24
2023/01/14 06:23:14;;;;;;;;;;;;;;;;;;5035781;28;19917;-24
2023/01/14 06:25:40;;;;;;;;;;;;;;;;;;5036069;28;19909;-24
2023/01/14 06:28:06;;;;;;;;;;;;;;;;;;5035802;28;19975;-24
2023/01/14 06:30:32;;;;;;;;;;;;;;;;;;5035957;28;19909;-24
2023/01/14 06:32:58;;;;;;;;;;;;;;;;;;5035510;28;19967;-23
2023/01/14 06:35:24;;;;;;;;;;;;;;;;;;5018068;28;19944;-24
2023/01/14 06:37:50;;;;;;;;;;;;;;;;;;5035691;28;19913;-24
2023/01/14 06:40:16;;;;;;;;;;;;;;;;;;5035912;28;19920;-24
2023/01/14 06:42:42;;;;;;;;;;;;;;;;;;5035693;28;20333;-24
2023/01/14 06:45:08;;;;;;;;;;;;;;;;;;5035702;28;19913;-24
2023/01/14 06:47:34;;;;;;;;;;;;;;;;;;5035262;28;20221;-24
2023/01/14 06:50:00;;;;;;;;;;;;;;;;;;5035617;28;19913;-24
2023/01/14 06:52:26;;;;;;;;;;;;;;;;;;5035586;28;19972;-24
2023/01/14 06:54:53;;;;;;;;;;;;;;;;;;5035161;28;19924;-24
2023/01/14 06:57:19;;;;;;;;;;;;;;;;;;5035158;28;19913;-23
2023/01/14 06:59:45;;;;;;;;;;;;;;;;;;5034810;28;20012;-24
2023/01/14 07:02:11;;;;;;;;;;;;;;;;;;5017400;28;19931;-24
2023/01/14 07:04:37;;;;;;;;;;;;;;;;;;5035121;28;20004;-25
2023/01/14 07:07:03;;;;;;;;;;;;;;;;;;5034901;28;19967;-24
2023/01/14 07:09:29;;;;;;;;;;;;;;;;;;5035027;28;19992;-24
2023/01/14 07:11:55;;;;;;;;;;;;;;;;;;5034629;28;19909;-24
2023/01/14 07:14:21;;;;;;;;;;;;;;;;;;5034161;28;19929;-24
2023/01/14 07:16:47;;;;;;;;;;;;;;;;;;5016839;28;20347;-24
2023/01/14 07:19:13;;;;;;;;;;;;;;;;;;5034288;28;20056;-24
2023/01/14 07:21:39;;;;;;;;;;;;;;;;;;5016779;28;20043;-24
2023/01/14 07:24:05;;;;;;;;;;;;;;;;;;5034257;28;19913;-24
2023/01/14 07:26:31;;;;;;;;;;;;;;;;;;5034320;28;19932;-24
2023/01/14 07:28:57;;;;;;;;;;;;;;;;;;5016733;28;19913;-24
2023/01/14 07:31:23;;;;;;;;;;;;;;;;;;5034353;28;19943;-24
2023/01/14 07:33:49;;;;;;;;;;;;;;;;;;5034900;28;19940;-24
2023/01/14 07:36:15;;;;;;;;;;;;;;;;;;5034318;28;19964;-24
2023/01/14 07:38:41;;;;;;;;;;;;;;;;;;5034159;28;19972;-24
2023/01/14 07:41:07;;;;;;;;;;;;;;;;;;5034426;28;19909;-24
2023/01/14 07:43:33;;;;;;;;;;;;;;;;;;5034650;28;19913;-24
2023/01/14 07:46:00;;;;;;;;;;;;;;;;;;5034344;28;19916;-24
2023/01/14 07:48:26;;;;;;;;;;;;;;;;;;5034403;28;19913;-24
2023/01/14 07:50:52;;;;;;;;;;;;;;;;;;5034457;28;19920;-25
2023/01/14 07:53:18;;;;;;;;;;;;;;;;;;5034485;28;20260;-24
2023/01/14 07:55:44;;;;;;;;;;;;;;;;;;5034549;28;20066;-24
2023/01/14 07:58:10;;;;;;;;;;;;;;;;;;5034712;28;19913;-24
2023/01/14 08:00:36;;;;;;;;;;;;;;;;;;5034672;28;19920;-24
2023/01/14 08:03:02;;;;;;;;;;;;;;;;;;5034157;28;20360;-24
2023/01/14 08:05:28;;;;;;;;;;;;;;;;;;5008665;28;19914;-24
2023/01/14 08:07:54;;;;;;;;;;;;;;;;;;4995581;28;20016;-24
2023/01/14 08:10:20;;;;;;;;;;;;;;;;;;4993917;28;20215;-24
2023/01/14 08:12:46;;;;;;;;;;;;;;;;;;4993908;28;20012;-24
2023/01/14 08:15:12;;;;;;;;;;;;;;;;;;4996246;28;20361;-24
2023/01/14 08:17:38;;;;;;;;;;;;;;;;;;4997959;28;19913;-23
2023/01/14 08:20:04;;;;;;;;;;;;;;;;;;4997816;28;19914;-24
2023/01/14 08:22:30;;;;;;;;;;;;;;;;;;4998630;28;19967;-23
2023/01/14 08:24:56;;;;;;;;;;;;;;;;;;4998624;28;19916;-24
2023/01/14 08:27:22;;;;;;;;;;;;;;;;;;4998566;28;19914;-24
2023/01/14 08:29:48;;;;;;;;;;;;;;;;;;4998328;28;20037;-24
2023/01/14 08:32:14;;;;;;;;;;;;;;;;;;4998394;28;19910;-23
2023/01/14 08:34:40;;;;;;;;;;;;;;;;;;4998368;28;19921;-24
2023/01/14 08:37:06;;;;;;;;;;;;;;;;;;4998290;28;19914;-24
2023/01/14 08:39:32;;;;;;;;;;;;;;;;;;4998114;28;19914;-23
2023/01/14 08:41:58;;;;;;;;;;;;;;;;;;4998006;28;20325;-24
2023/01/14 08:44:24;;;;;;;;;;;;;;;;;;4997838;28;19975;-23
2023/01/14 08:46:50;;;;;;;;;;;;;;;;;;4997040;28;20293;-23
2023/01/14 08:49:16;;;;;;;;;;;;;;;;;;4997066;28;19924;-23
2023/01/14 08:51:42;;;;;;;;;;;;;;;;;;4998220;28;19991;-24
2023/01/14 08:54:08;;;;;;;;;;;;;;;;;;4996925;28;19914;-23
2023/01/14 08:56:34;;;;;;;;;;;;;;;;;;4996872;28;19941;-23
2023/01/14 08:59:00;;;;;;;;;;;;;;;;;;4997007;28;19914;-23
2023/01/14 09:01:26;;;;;;;;;;;;;;;;;;4997987;28;19920;-23
2023/01/14 09:03:53;;;;;;;;;;;;;;;;;;4997022;28;19960;-23
2023/01/14 09:06:19;;;;;;;;;;;;;;;;;;5021020;28;19978;-23
2023/01/14 09:19:27;;;;;;;;;;;;;;;;;;5037327;28;19924;-23
2023/01/14 09:21:53;;;;;;;;;;;;;;;;;;5036896;28;19917;-24
2023/01/14 09:24:19;;;;;;;;;;;;;;;;;;5037003;28;19963;-23
2023/01/14 09:26:45;;;;;;;;;;;;;;;;;;5035794;28;19924;-23
2023/01/14 09:29:11;;;;;;;;;;;;;;;;;;5037059;28;19913;-24
2023/01/14 09:31:37;;;;;;;;;;;;;;;;;;5019569;28;20316;-24
2023/01/14 09:34:03;;;;;;;;;;;;;;;;;;5036755;28;20004;-24
2023/01/14 09:36:29;;;;;;;;;;;;;;;;;;5036779;28;19913;-23
2023/01/14 09:38:55;;;;;;;;;;;;;;;;;;5036461;28;19913;-25
2023/01/14 09:41:21;;;;;;;;;;;;;;;;;;5018748;28;19910;-23
2023/01/14 09:43:47;;;;;;;;;;;;;;;;;;5036086;28;19913;-24
2023/01/14 09:46:13;;;;;;;;;;;;;;;;;;5035808;28;19924;-23
2023/01/14 09:48:39;;;;;;;;;;;;;;;;;;5035930;28;19920;-24
2023/01/14 09:51:05;;;;;;;;;;;;;;;;;;5035902;28;19936;-23
2023/01/14 09:53:31;;;;;;;;;;;;;;;;;;5035852;28;20340;-23
2023/01/14 09:55:57;;;;;;;;;;;;;;;;;;5036174;28;19924;-23
2023/01/14 09:58:23;;;;;;;;;;;;;;;;;;5035662;28;19913;-23
2023/01/14 10:00:49;;;;;;;;;;;;;;;;;;5035843;28;20331;-23
2023/01/14 10:03:15;;;;;;;;;;;;;;;;;;5035614;28;20255;-24
2023/01/14 10:05:41;;;;;;;;;;;;;;;;;;5035278;28;19948;-23
2023/01/14 10:08:07;;;;;;;;;;;;;;;;;;5035374;28;20017;-23
2023/01/14 10:10:35;;;;;;;;;;;;;;;;;;5035497;28;19974;-24
2023/01/14 10:13:02;;;;;;;;;;;;;;;;;;5035471;28;19913;-23
2023/01/14 10:15:28;;;;;;;;;;;;;;;;;;5035091;28;20420;-24
2023/01/14 10:17:54;;;;;;;;;;;;;;;;;;5035271;28;19952;-24
2023/01/14 10:20:19;;;;;;;;;;;;;;;;;;5035132;28;19921;-23
2023/01/14 10:22:45;;;;;;;;;;;;;;;;;;5035193;28;19919;-24
2023/01/14 10:25:11;;;;;;;;;;;;;;;;;;5035559;28;19914;-23
2023/01/14 10:27:37;;;;;;;;;;;;;;;;;;5035832;28;19932;-24
2023/01/14 10:30:03;;;;;;;;;;;;;;;;;;5035753;28;19924;-24
2023/01/14 10:32:29;;;;;;;;;;;;;;;;;;5035636;28;19924;-24
2023/01/14 10:34:55;;;;;;;;;;;;;;;;;;5035980;28;20015;-24
2023/01/14 10:37:21;;;;;;;;;;;;;;;;;;5035269;28;20337;-24
2023/01/14 10:39:50;;;;;;;;;;;;;;;;;;5018102;28;19923;-24
2023/01/14 10:42:16;;;;;;;;;;;;;;;;;;5017975;28;20264;-24
2023/01/14 10:44:45;;;;;;;;;;;;;;;;;;5035389;28;19917;-24
2023/01/14 10:47:11;;;;;;;;;;;;;;;;;;5035556;28;20241;-24
2023/01/14 10:49:37;;;;;;;;;;;;;;;;;;5035674;28;20249;-24
2023/01/14 10:52:03;;;;;;;;;;;;;;;;;;5035358;28;19909;-24
2023/01/14 10:54:29;;;;;;;;;;;;;;;;;;5035578;28;20464;-24
2023/01/14 10:56:55;;;;;;;;;;;;;;;;;;5035269;28;19913;-24
2023/01/14 10:59:21;;;;;;;;;;;;;;;;;;5035475;28;20055;-25
2023/01/14 11:01:47;;;;;;;;;;;;;;;;;;5018714;28;19913;-23
2023/01/14 11:04:13;;;;;;;;;;;;;;;;;;5017733;28;19913;-23
2023/01/14 11:06:39;;;;;;;;;;;;;;;;;;5035232;28;20359;-25
2023/01/14 11:09:05;;;;;;;;;;;;;;;;;;5035131;28;19975;-23
2023/01/14 11:11:31;;;;;;;;;;;;;;;;;;5035120;28;20292;-23
2023/01/14 11:13:59;;;;;;;;;;;;;;;;;;5034673;28;19967;-23
2023/01/14 11:16:27;;;;;;;;;;;;;;;;;;5034361;28;20203;-23
2023/01/14 11:18:56;;;;;;;;;;;;;;;;;;5034734;28;20103;-26
2023/01/14 11:21:22;;;;;;;;;;;;;;;;;;5034820;28;20318;-23
2023/01/14 11:23:48;;;;;;;;;;;;;;;;;;5034988;28;20336;-23
2023/01/14 11:26:14;;;;;;;;;;;;;;;;;;5034955;28;19924;-23
2023/01/14 11:28:40;;;;;;;;;;;;;;;;;;5034689;28;20348;-23
2023/01/14 11:31:06;;;;;;;;;;;;;;;;;;5034919;28;19993;-23
2023/01/14 11:33:33;;;;;;;;;;;;;;;;;;5034780;28;19921;-23
2023/01/14 11:36:00;;;;;;;;;;;;;;;;;;5034511;28;19917;-23
2023/01/14 11:38:26;;;;;;;;;;;;;;;;;;5034642;28;20356;-23
2023/01/14 11:43:54;;;;;;;;;;;;;;;;;;4954956;29;19958;-24
2023/01/14 11:46:20;;;;;;;;;;;;;;;;;;5018472;28;20371;-25
2023/01/14 11:48:46;;;;;;;;;;;;;;;;;;5034494;28;19913;-24
2023/01/14 11:51:12;;;;;;;;;;;;;;;;;;5034087;28;20263;-25
2023/01/14 11:53:38;;;;;;;;;;;;;;;;;;5017099;28;20372;-25
2023/01/14 11:56:04;;;;;;;;;;;;;;;;;;5016903;28;19975;-24
2023/01/14 11:58:30;;;;;;;;;;;;;;;;;;5034372;28;19990;-24
2023/01/14 12:00:56;;;;;;;;;;;;;;;;;;5034121;28;20356;-24
2023/01/14 12:03:22;;;;;;;;;;;;;;;;;;5034154;28;19913;-24
2023/01/14 12:05:48;;;;;;;;;;;;;;;;;;5034270;28;19943;-25
2023/01/14 12:08:15;;;;;;;;;;;;;;;;;;5017021;28;19940;-25
2023/01/14 12:10:41;;;;;;;;;;;;;;;;;;5034472;28;20000;-25
2023/01/14 12:18:36;;;;;;;;;;;;;;;;;;5034617;28;19920;-24
2023/01/14 12:21:02;;;;;;;;;;;;;;;;;;5034266;28;19917;-24
2023/01/14 12:23:28;;;;;;;;;;;;;;;;;;5034554;28;19913;-24
2023/01/14 12:25:54;;;;;;;;;;;;;;;;;;5034274;28;19924;-25
2023/01/14 12:28:20;;;;;;;;;;;;;;;;;;5034577;28;20281;-25
2023/01/14 12:30:46;;;;;;;;;;;;;;;;;;5034503;28;19952;-25
2023/01/14 12:33:12;;;;;;;;;;;;;;;;;;5034146;28;19909;-25
2023/01/14 12:35:38;;;;;;;;;;;;;;;;;;5034418;28;20017;-24
2023/01/14 12:45:41;;;;;;;;;;;;;;;;;;5034170;28;20013;-24
2023/01/14 12:46:20;;;;;;;;;;;;;;;;;;5034330;28;19919;-24
2023/01/14 12:48:46;;;;;;;;;;;;;;;;;;5034200;28;19952;-25
2023/01/14 12:51:12;;;;;;;;;;;;;;;;;;5034372;28;19913;-24
2023/01/14 12:53:38;;;;;;;;;;;;;;;;;;5034354;28;20054;-25
2023/01/14 12:56:04;;;;;;;;;;;;;;;;;;5034035;28;19921;-24
2023/01/14 12:58:30;;;;;;;;;;;;;;;;;;5034586;28;19994;-24
2023/01/14 13:00:56;;;;;;;;;;;;;;;;;;5017563;28;20263;-24
2023/01/14 13:03:22;;;;;;;;;;;;;;;;;;5037516;28;19925;-24
2023/01/14 13:05:48;;;;;;;;;;;;;;;;;;5037489;28;19917;-24
2023/01/14 13:08:14;;;;;;;;;;;;;;;;;;5037548;28;20019;-25
2023/01/14 13:10:42;;;;;;;;;;;;;;;;;;5037434;28;19956;-25
2023/01/14 13:13:08;;;;;;;;;;;;;;;;;;5037332;28;20418;-24
2023/01/14 13:15:34;;;;;;;;;;;;;;;;;;5037360;28;19924;-24
2023/01/14 13:18:00;;;;;;;;;;;;;;;;;;5019862;28;19947;-25
2023/01/14 13:20:26;;;;;;;;;;;;;;;;;;5037262;28;19964;-24
2023/01/14 13:22:52;;;;;;;;;;;;;;;;;;5019725;28;19913;-24
2023/01/14 13:25:18;;;;;;;;;;;;;;;;;;5037181;28;19920;-24
2023/01/14 13:27:45;;;;;;;;;;;;;;;;;;5037195;28;19913;-24
2023/01/14 13:30:10;;;;;;;;;;;;;;;;;;5037098;28;19935;-25
2023/01/14 13:32:36;;;;;;;;;;;;;;;;;;5037229;28;19909;-25
2023/01/14 13:35:03;;;;;;;;;;;;;;;;;;5037251;28;20343;-25
2023/01/14 13:37:29;;;;;;;;;;;;;;;;;;5036997;28;19917;-25
2023/01/14 13:39:55;;;;;;;;;;;;;;;;;;5036908;28;19983;-25
2023/01/14 13:42:21;;;;;;;;;;;;;;;;;;5037085;28;20255;-25
2023/01/14 13:44:48;;;;;;;;;;;;;;;;;;5037114;28;19911;-25
2023/01/14 13:47:14;;;;;;;;;;;;;;;;;;5037038;28;20251;-25
2023/01/14 13:49:40;;;;;;;;;;;;;;;;;;5036989;28;19913;-25
2023/01/14 13:52:06;;;;;;;;;;;;;;;;;;5036683;28;19948;-25
2023/01/14 13:54:32;;;;;;;;;;;;;;;;;;5036858;28;19971;-25
2023/01/14 13:56:58;;;;;;;;;;;;;;;;;;5036710;28;19921;-24
2023/01/14 13:59:24;;;;;;;;;;;;;;;;;;5036842;28;20344;-24
2023/01/14 14:01:50;;;;;;;;;;;;;;;;;;5036791;28;19920;-25
2023/01/14 14:04:16;;;;;;;;;;;;;;;;;;5036767;28;19913;-25
2023/01/14 14:06:42;;;;;;;;;;;;;;;;;;5036341;28;20379;-24
2023/01/14 14:09:08;;;;;;;;;;;;;;;;;;5036342;28;19920;-24
2023/01/14 14:11:34;;;;;;;;;;;;;;;;;;5036332;28;19913;-24
2023/01/14 14:14:07;;;;;;;;;;;;;;;;;;5018040;28;19967;-24
2023/01/14 14:16:33;;;;;;;;;;;;;;;;;;5036512;28;20264;-24
2023/01/14 14:19:00;;;;;;;;;;;;;;;;;;5036736;28;19992;-24
2023/01/14 14:21:26;;;;;;;;;;;;;;;;;;5018613;28;19942;-24
2023/01/14 14:23:52;;;;;;;;;;;;;;;;;;5036074;28;20280;-30
2023/01/14 14:26:18;;;;;;;;;;;;;;;;;;5036276;28;19940;-28
2023/01/14 14:28:44;;;;;;;;;;;;;;;;;;5036200;28;19917;-25
2023/01/14 14:31:16;;;;;;;;;;;;;;;;;;5035935;28;20263;-23
2023/01/14 14:33:42;;;;;;;;;;;;;;;;;;5036114;28;19917;-26
2023/01/14 14:36:08;;;;;;;;;;;;;;;;;;5035676;28;19912;-30
2023/01/14 14:38:34;;;;;;;;;;;;;;;;;;5018315;28;19978;-26
2023/01/14 14:41:00;;;;;;;;;;;;;;;;;;5035749;28;20284;-29
2023/01/14 14:43:26;;;;;;;;;;;;;;;;;;5035715;28;19920;-30
2023/01/14 14:45:52;;;;;;;;;;;;;;;;;;5035710;28;20248;-30
2023/01/14 14:48:18;;;;;;;;;;;;;;;;;;5035849;28;19943;-26
2023/01/14 14:50:44;;;;;;;;;;;;;;;;;;5035902;28;20388;-26
2023/01/14 14:53:10;;;;;;;;;;;;;;;;;;5035531;28;19913;-25
2023/01/14 14:55:36;;;;;;;;;;;;;;;;;;5035454;28;20278;-27
2023/01/14 14:58:02;;;;;;;;;;;;;;;;;;5035531;28;19917;-24
2023/01/14 15:00:28;;;;;;;;;;;;;;;;;;5035916;28;20000;-26
2023/01/14 15:02:54;;;;;;;;;;;;;;;;;;5035260;28;19936;-27
2023/01/14 15:05:20;;;;;;;;;;;;;;;;;;5035121;28;19921;-28
2023/01/14 15:07:46;;;;;;;;;;;;;;;;;;5035570;28;19913;-28
2023/01/14 15:10:12;;;;;;;;;;;;;;;;;;5035228;28;19913;-23
2023/01/14 15:12:38;;;;;;;;;;;;;;;;;;5035139;28;19920;-25
2023/01/14 15:15:05;;;;;;;;;;;;;;;;;;5035112;28;20012;-25
2023/01/14 15:17:31;;;;;;;;;;;;;;;;;;5018451;28;19921;-28
2023/01/14 15:19:57;;;;;;;;;;;;;;;;;;5035030;28;19925;-29
2023/01/14 15:22:23;;;;;;;;;;;;;;;;;;5034976;28;19999;-26
2023/01/14 15:24:51;;;;;;;;;;;;;;;;;;5035206;28;19913;-27
2023/01/14 15:27:18;;;;;;;;;;;;;;;;;;5035230;28;19912;-25
2023/01/14 15:29:45;;;;;;;;;;;;;;;;;;5034877;28;20307;-24
2023/01/14 15:32:11;;;;;;;;;;;;;;;;;;5034894;28;19955;-25
2023/01/14 15:34:37;;;;;;;;;;;;;;;;;;5017370;28;19921;-25
2023/01/14 15:37:03;;;;;;;;;;;;;;;;;;5035120;28;20299;-25
2023/01/14 15:39:29;;;;;;;;;;;;;;;;;;5017397;28;19912;-25
2023/01/14 15:41:55;;;;;;;;;;;;;;;;;;5034984;28;19920;-29
2023/01/14 15:44:21;;;;;;;;;;;;;;;;;;5034962;28;20252;-24
2023/01/14 15:46:47;;;;;;;;;;;;;;;;;;5034966;28;20349;-25
2023/01/14 15:49:13;;;;;;;;;;;;;;;;;;5034985;28;19913;-28
2023/01/14 15:51:39;;;;;;;;;;;;;;;;;;5034976;28;19909;-27
2023/01/14 15:54:05;;;;;;;;;;;;;;;;;;5034814;28;20014;-26
2023/01/14 15:56:31;;;;;;;;;;;;;;;;;;5034828;28;20004;-26
2023/01/14 15:58:58;;;;;;;;;;;;;;;;;;5034586;28;19913;-27
2023/01/14 16:01:24;;;;;;;;;;;;;;;;;;5017126;28;20352;-27
2023/01/14 16:03:50;;;;;;;;;;;;;;;;;;5034756;28;19913;-26
2023/01/14 16:06:17;;;;;;;;;;;;;;;;;;5034311;28;20356;-24
2023/01/14 16:08:43;;;;;;;;;;;;;;;;;;5034534;28;19924;-24
2023/01/14 16:11:09;;;;;;;;;;;;;;;;;;5034555;28;20000;-29
2023/01/14 16:13:35;;;;;;;;;;;;;;;;;;5034433;28;19917;-25
2023/01/14 16:16:01;;;;;;;;;;;;;;;;;;5034924;28;19927;-26
2023/01/14 16:18:27;;;;;;;;;;;;;;;;;;5035104;28;19913;-31
2023/01/14 16:20:53;;;;;;;;;;;;;;;;;;5034416;28;19920;-29
2023/01/14 16:23:19;;;;;;;;;;;;;;;;;;5034598;28;19940;-28
2023/01/14 16:25:45;;;;;;;;;;;;;;;;;;5034345;28;19924;-24
2023/01/14 16:28:11;;;;;;;;;;;;;;;;;;5034625;28;19913;-25
2023/01/14 16:30:37;;;;;;;;;;;;;;;;;;5016907;28;19909;-25
2023/01/14 16:33:03;;;;;;;;;;;;;;;;;;5034284;28;19992;-31
2023/01/14 16:35:29;;;;;;;;;;;;;;;;;;5034424;28;19917;-23
2023/01/14 16:37:55;;;;;;;;;;;;;;;;;;5038065;28;19910;-28
2023/01/14 16:40:21;;;;;;;;;;;;;;;;;;5038016;28;19920;-28
2023/01/14 16:42:47;;;;;;;;;;;;;;;;;;5037899;28;19919;-25
2023/01/14 16:45:13;;;;;;;;;;;;;;;;;;5020523;28;19945;-28
2023/01/14 16:47:39;;;;;;;;;;;;;;;;;;5037993;28;20272;-26
2023/01/14 16:50:06;;;;;;;;;;;;;;;;;;5020461;28;20355;-25
2023/01/14 16:52:32;;;;;;;;;;;;;;;;;;5037683;28;19914;-27
2023/01/14 16:54:58;;;;;;;;;;;;;;;;;;5037631;28;19924;-30
2023/01/14 16:57:24;;;;;;;;;;;;;;;;;;5037967;28;19913;-27
2023/01/14 16:59:50;;;;;;;;;;;;;;;;;;5038426;28;19916;-29
2023/01/14 17:02:16;;;;;;;;;;;;;;;;;;5037559;28;19923;-32
2023/01/14 17:04:42;;;;;;;;;;;;;;;;;;5037750;28;20316;-31
2023/01/14 17:07:08;;;;;;;;;;;;;;;;;;5037363;28;19992;-30
2023/01/14 17:09:36;;;;;;;;;;;;;;;;;;5037677;28;19944;-30
2023/01/14 17:14:46;;;;;;;;;;;;;;;;;;5037418;28;19987;-25
2023/01/14 17:17:12;;;;;;;;;;;;;;;;;;5037327;28;19914;-26
2023/01/14 17:19:38;;;;;;;;;;;;;;;;;;5037320;28;19912;-28
2023/01/14 17:22:04;;;;;;;;;;;;;;;;;;5037403;28;19913;-28
2023/01/14 17:24:30;;;;;;;;;;;;;;;;;;5019733;28;19913;-29